Tropical Cyclones
[Index]
Main Index Home Page Stock Weather Photos Extreme Storms Discussion Storm News and Storm Chasing Reports Tropical Cyclones / Hurricanes / Typhoons Weather Data and Links Wild Fires / Bushfires Weather Observation Techniques Weather Picture Catalogue Tornado Pictures and Reports Stock Video Footage and DVDs for sale
Season 2009-2010 Tropical Cyclone ROBYN Track Map
Season 2009-2010 Summaries: [BoM-AU] [JTWC-AU] [JTWC-SIO] [JTWC-SPAC] [JTWC-SH]
<<- Previous TC | BoM 2009-2010 Season | Next TC ->>

click for intensity scale information  Lat/long Grid: Show Hide

 Date Labels: Show Hide

Bureau of Meteorology Tropical Cyclone Data

Name: ROBYN
Number: 936 / 200910_12

01 Apr 2010 00:00 UTC to 07 Apr 2010 06:00 UTC

    date/time    lat    long    hPa   cat  kts
2010-04-01 00    8.8    93.3   1004         20          
2010-04-01 06    8.9    93.1   1002         25          
2010-04-01 12    9.4    93.1   1002         25          
2010-04-01 18   10.1    93.0   1000         30          
2010-04-02 00   10.5    92.9   1000         30          
2010-04-02 06   11.2    92.7   1000         35          
2010-04-02 12   11.8    92.5    998         35          
2010-04-02 18   12.4    92.4    998         35          
2010-04-03 00   12.9    92.4    996         35          
2010-04-03 06   13.3    92.4    994    1    40          
2010-04-03 12   13.6    92.4    994    1    40          
2010-04-03 18   13.9    92.4    990    1    45          
2010-04-04 00   14.2    92.3    990    1    45          
2010-04-04 06   14.5    92.0    988    1    50          
2010-04-04 12   14.8    91.8    985    2    55          
2010-04-04 18   15.2    91.5    985    2    55          
2010-04-05 00   15.6    91.4    980    2    60          
2010-04-05 06   16.1    91.6    985    2    55          
2010-04-05 12   16.1    92.2    986    1    55          
2010-04-05 18   16.0    92.2    988    1    50          
2010-04-06 00   15.8    92.1    994    1    40          
2010-04-06 06   15.5    91.8    996         35          
2010-04-06 12   15.2    91.5    996         35          
2010-04-06 18   15.4    91.1    996         35          
2010-04-07 00   15.8    90.7    996         35          
2010-04-07 06   16.0    90.2    998         30          
Winds are 10-min average.

Tropical cyclone tracks developed by Michael Bath using data from the Bureau of Meteorology and Google Maps.


[Australian Severe Weather index] [Copyright Notice] [Email Contacts] [Search This Site] [Privacy Policy]
Document: tropical_cyclone_robyn.htm Updated: 29 June 2017